< < Back
Terminal Aerodrome Forecast


Current Version              Previous Versions:   1  2  3  4  5  6  7  8  9  

Terminal Aerodrome Forecast

073
FTUS42 KILM 072320
TAFFLO
TAF
KFLO 072320Z 0800/0824 33008KT P6SM SCT060 BKN120
     FM080300 31006KT P6SM SCT250
     FM081100 27003KT P6SM FEW250
     FM081800 22012KT P6SM BKN250
      TEMPO 0820/0822 5SM -SHRA BKN050=

Latest METAR

754
SAUS70 KWBC 080600 RRD
MTRFLO
METAR KFLO 080553Z AUTO 29005KT 10SM CLR 03/M03 A2988 RMK AO2 SLP117
T00331033 10067 20028 56005


USA.gov is the U.S. government's official web portal to all federal, state and local government web resources and services.